sensor_id;sensor_type;location;lat;lon;timestamp;P1;durP1;ratioP1;P2;durP2;ratioP2
14316;SDS011;7242;50.858;6.586;2023-04-05T00:01:48;6.50;;;4.27;;
14316;SDS011;7242;50.858;6.586;2023-04-05T00:04:49;8.10;;;5.00;;
14316;SDS011;7242;50.858;6.586;2023-04-05T00:07:51;6.20;;;4.43;;
14316;SDS011;7242;50.858;6.586;2023-04-05T00:10:53;5.20;;;4.10;;
14316;SDS011;7242;50.858;6.586;2023-04-05T00:13:54;6.30;;;4.30;;
14316;SDS011;7242;50.858;6.586;2023-04-05T00:16:55;6.87;;;4.40;;
14316;SDS011;7242;50.858;6.586;2023-04-05T00:19:57;7.57;;;4.83;;
14316;SDS011;7242;50.858;6.586;2023-04-05T00:22:57;8.20;;;4.60;;
14316;SDS011;7242;50.858;6.586;2023-04-05T00:25:59;6.83;;;4.90;;
14316;SDS011;7242;50.858;6.586;2023-04-05T00:29:00;7.43;;;5.37;;
14316;SDS011;7242;50.858;6.586;2023-04-05T00:32:01;9.33;;;5.47;;
14316;SDS011;7242;50.858;6.586;2023-04-05T00:35:03;6.90;;;4.67;;
14316;SDS011;7242;50.858;6.586;2023-04-05T00:38:04;7.73;;;5.33;;
14316;SDS011;7242;50.858;6.586;2023-04-05T00:41:06;7.13;;;4.63;;
14316;SDS011;7242;50.858;6.586;2023-04-05T00:44:06;5.97;;;4.77;;
14316;SDS011;7242;50.858;6.586;2023-04-05T00:47:07;7.40;;;5.33;;
14316;SDS011;7242;50.858;6.586;2023-04-05T00:50:08;8.27;;;4.77;;
14316;SDS011;7242;50.858;6.586;2023-04-05T00:53:13;6.80;;;4.67;;
14316;SDS011;7242;50.858;6.586;2023-04-05T00:56:15;8.77;;;5.17;;
14316;SDS011;7242;50.858;6.586;2023-04-05T00:59:16;9.27;;;5.50;;
14316;SDS011;7242;50.858;6.586;2023-04-05T01:02:19;6.33;;;5.03;;
14316;SDS011;7242;50.858;6.586;2023-04-05T01:05:35;6.47;;;4.97;;
14316;SDS011;7242;50.858;6.586;2023-04-05T01:08:48;7.87;;;5.00;;
14316;SDS011;7242;50.858;6.586;2023-04-05T01:11:56;10.30;;;5.30;;
14316;SDS011;7242;50.858;6.586;2023-04-05T01:14:59;8.63;;;5.67;;
14316;SDS011;7242;50.858;6.586;2023-04-05T01:18:00;6.87;;;5.30;;
14316;SDS011;7242;50.858;6.586;2023-04-05T01:21:07;7.43;;;4.97;;
14316;SDS011;7242;50.858;6.586;2023-04-05T01:24:43;7.43;;;5.17;;
14316;SDS011;7242;50.858;6.586;2023-04-05T01:28:03;11.10;;;5.57;;
14316;SDS011;7242;50.858;6.586;2023-04-05T01:35:00;6.00;;;4.87;;
14316;SDS011;7242;50.858;6.586;2023-04-05T01:37:41;8.13;;;5.20;;
14316;SDS011;7242;50.858;6.586;2023-04-05T01:40:44;9.27;;;5.23;;
14316;SDS011;7242;50.858;6.586;2023-04-05T01:43:46;6.63;;;5.07;;
14316;SDS011;7242;50.858;6.586;2023-04-05T01:46:47;7.33;;;5.27;;
14316;SDS011;7242;50.858;6.586;2023-04-05T01:49:47;9.47;;;5.40;;
14316;SDS011;7242;50.858;6.586;2023-04-05T01:52:49;8.47;;;5.37;;
14316;SDS011;7242;50.858;6.586;2023-04-05T01:55:50;8.80;;;5.53;;
14316;SDS011;7242;50.858;6.586;2023-04-05T01:58:50;10.60;;;5.50;;
14316;SDS011;7242;50.858;6.586;2023-04-05T02:01:53;11.47;;;5.27;;
14316;SDS011;7242;50.858;6.586;2023-04-05T02:04:54;8.73;;;5.67;;
14316;SDS011;7242;50.858;6.586;2023-04-05T02:07:55;9.53;;;5.77;;
14316;SDS011;7242;50.858;6.586;2023-04-05T02:10:56;9.37;;;5.47;;
14316;SDS011;7242;50.858;6.586;2023-04-05T02:13:57;11.60;;;5.47;;
14316;SDS011;7242;50.858;6.586;2023-04-05T02:16:59;8.13;;;5.13;;
14316;SDS011;7242;50.858;6.586;2023-04-05T02:20:02;7.50;;;5.23;;
14316;SDS011;7242;50.858;6.586;2023-04-05T02:23:06;8.13;;;5.77;;
14316;SDS011;7242;50.858;6.586;2023-04-05T02:26:07;9.40;;;6.03;;
14316;SDS011;7242;50.858;6.586;2023-04-05T02:29:08;7.53;;;5.50;;
14316;SDS011;7242;50.858;6.586;2023-04-05T02:32:09;9.40;;;5.40;;
14316;SDS011;7242;50.858;6.586;2023-04-05T02:35:10;8.50;;;5.97;;
14316;SDS011;7242;50.858;6.586;2023-04-05T02:38:11;9.63;;;5.90;;
14316;SDS011;7242;50.858;6.586;2023-04-05T02:41:12;9.80;;;5.87;;
14316;SDS011;7242;50.858;6.586;2023-04-05T02:44:13;11.00;;;6.13;;
14316;SDS011;7242;50.858;6.586;2023-04-05T02:47:13;8.90;;;5.50;;
14316;SDS011;7242;50.858;6.586;2023-04-05T02:50:23;11.63;;;6.13;;
14316;SDS011;7242;50.858;6.586;2023-04-05T02:53:24;9.57;;;5.40;;
14316;SDS011;7242;50.858;6.586;2023-04-05T02:56:32;8.00;;;5.40;;
14316;SDS011;7242;50.858;6.586;2023-04-05T02:59:33;10.03;;;5.87;;
14316;SDS011;7242;50.858;6.586;2023-04-05T03:02:36;10.87;;;5.90;;
14316;SDS011;7242;50.858;6.586;2023-04-05T03:05:38;9.77;;;5.63;;
14316;SDS011;7242;50.858;6.586;2023-04-05T03:08:42;8.80;;;5.73;;
14316;SDS011;7242;50.858;6.586;2023-04-05T03:11:47;11.57;;;6.03;;
14316;SDS011;7242;50.858;6.586;2023-04-05T03:14:49;10.27;;;5.97;;
14316;SDS011;7242;50.858;6.586;2023-04-05T03:17:55;10.37;;;5.50;;
14316;SDS011;7242;50.858;6.586;2023-04-05T03:20:57;9.03;;;5.40;;
14316;SDS011;7242;50.858;6.586;2023-04-05T03:23:59;14.27;;;5.83;;
14316;SDS011;7242;50.858;6.586;2023-04-05T03:27:09;10.03;;;6.10;;
14316;SDS011;7242;50.858;6.586;2023-04-05T03:30:20;8.23;;;5.47;;
14316;SDS011;7242;50.858;6.586;2023-04-05T03:33:30;8.60;;;5.57;;
14316;SDS011;7242;50.858;6.586;2023-04-05T03:36:30;13.10;;;6.10;;
14316;SDS011;7242;50.858;6.586;2023-04-05T03:39:44;12.70;;;5.97;;
14316;SDS011;7242;50.858;6.586;2023-04-05T03:42:45;10.17;;;5.47;;
14316;SDS011;7242;50.858;6.586;2023-04-05T03:45:47;10.40;;;5.80;;
14316;SDS011;7242;50.858;6.586;2023-04-05T03:48:47;9.87;;;5.50;;
14316;SDS011;7242;50.858;6.586;2023-04-05T03:51:48;12.57;;;5.40;;
14316;SDS011;7242;50.858;6.586;2023-04-05T03:54:51;7.67;;;5.30;;
14316;SDS011;7242;50.858;6.586;2023-04-05T03:57:56;10.30;;;5.87;;
14316;SDS011;7242;50.858;6.586;2023-04-05T04:01:02;12.43;;;5.80;;
14316;SDS011;7242;50.858;6.586;2023-04-05T04:04:03;11.87;;;5.53;;
14316;SDS011;7242;50.858;6.586;2023-04-05T04:07:05;10.20;;;5.30;;
14316;SDS011;7242;50.858;6.586;2023-04-05T04:10:06;8.67;;;5.67;;
14316;SDS011;7242;50.858;6.586;2023-04-05T04:13:07;12.20;;;5.70;;
14316;SDS011;7242;50.858;6.586;2023-04-05T04:16:09;10.13;;;5.80;;
14316;SDS011;7242;50.858;6.586;2023-04-05T04:19:36;9.60;;;5.53;;
14316;SDS011;7242;50.858;6.586;2023-04-05T04:23:07;11.20;;;5.93;;
14316;SDS011;7242;50.858;6.586;2023-04-05T04:26:33;10.23;;;5.60;;
14316;SDS011;7242;50.858;6.586;2023-04-05T04:29:51;11.67;;;6.27;;
14316;SDS011;7242;50.858;6.586;2023-04-05T04:33:19;11.30;;;5.97;;
14316;SDS011;7242;50.858;6.586;2023-04-05T04:36:38;12.63;;;6.30;;
14316;SDS011;7242;50.858;6.586;2023-04-05T04:40:00;8.57;;;5.60;;
14316;SDS011;7242;50.858;6.586;2023-04-05T04:43:34;11.87;;;6.13;;
14316;SDS011;7242;50.858;6.586;2023-04-05T04:46:48;9.27;;;5.57;;
14316;SDS011;7242;50.858;6.586;2023-04-05T04:50:32;11.17;;;5.70;;
14316;SDS011;7242;50.858;6.586;2023-04-05T04:53:33;8.63;;;6.03;;
14316;SDS011;7242;50.858;6.586;2023-04-05T04:56:34;7.77;;;5.67;;
14316;SDS011;7242;50.858;6.586;2023-04-05T04:59:35;8.43;;;5.60;;
14316;SDS011;7242;50.858;6.586;2023-04-05T05:02:39;9.57;;;5.47;;
14316;SDS011;7242;50.858;6.586;2023-04-05T05:05:44;10.93;;;5.77;;
14316;SDS011;7242;50.858;6.586;2023-04-05T05:08:46;10.10;;;5.60;;
14316;SDS011;7242;50.858;6.586;2023-04-05T05:11:48;11.30;;;5.90;;
14316;SDS011;7242;50.858;6.586;2023-04-05T05:14:49;9.57;;;5.70;;
14316;SDS011;7242;50.858;6.586;2023-04-05T05:17:50;10.73;;;6.00;;
14316;SDS011;7242;50.858;6.586;2023-04-05T05:20:52;9.47;;;5.73;;
14316;SDS011;7242;50.858;6.586;2023-04-05T05:23:53;11.00;;;5.73;;
14316;SDS011;7242;50.858;6.586;2023-04-05T05:26:54;11.73;;;5.90;;
14316;SDS011;7242;50.858;6.586;2023-04-05T05:29:54;11.13;;;6.03;;
14316;SDS011;7242;50.858;6.586;2023-04-05T05:32:55;11.17;;;5.83;;
14316;SDS011;7242;50.858;6.586;2023-04-05T05:35:57;9.50;;;5.80;;
14316;SDS011;7242;50.858;6.586;2023-04-05T05:38:58;11.73;;;6.17;;
14316;SDS011;7242;50.858;6.586;2023-04-05T05:41:58;10.17;;;5.80;;
14316;SDS011;7242;50.858;6.586;2023-04-05T05:45:03;9.13;;;5.90;;
14316;SDS011;7242;50.858;6.586;2023-04-05T05:48:07;15.93;;;6.50;;
14316;SDS011;7242;50.858;6.586;2023-04-05T05:51:08;10.80;;;6.30;;
14316;SDS011;7242;50.858;6.586;2023-04-05T05:54:09;13.50;;;6.60;;
14316;SDS011;7242;50.858;6.586;2023-04-05T05:57:09;9.03;;;5.70;;
14316;SDS011;7242;50.858;6.586;2023-04-05T06:00:10;9.43;;;5.97;;
14316;SDS011;7242;50.858;6.586;2023-04-05T06:03:15;11.30;;;5.43;;
14316;SDS011;7242;50.858;6.586;2023-04-05T06:06:15;8.53;;;5.20;;
14316;SDS011;7242;50.858;6.586;2023-04-05T06:09:16;9.23;;;4.90;;
14316;SDS011;7242;50.858;6.586;2023-04-05T06:12:19;8.43;;;5.13;;
14316;SDS011;7242;50.858;6.586;2023-04-05T06:15:20;7.97;;;4.70;;
14316;SDS011;7242;50.858;6.586;2023-04-05T06:18:21;7.20;;;4.97;;
14316;SDS011;7242;50.858;6.586;2023-04-05T06:21:22;8.30;;;5.67;;
14316;SDS011;7242;50.858;6.586;2023-04-05T06:24:23;10.87;;;5.47;;
14316;SDS011;7242;50.858;6.586;2023-04-05T06:27:25;9.20;;;5.43;;
14316;SDS011;7242;50.858;6.586;2023-04-05T06:30:26;9.30;;;5.20;;
14316;SDS011;7242;50.858;6.586;2023-04-05T06:33:27;8.10;;;5.73;;
14316;SDS011;7242;50.858;6.586;2023-04-05T06:36:30;11.10;;;5.50;;
14316;SDS011;7242;50.858;6.586;2023-04-05T06:39:32;14.60;;;6.27;;
14316;SDS011;7242;50.858;6.586;2023-04-05T06:42:33;12.50;;;5.60;;
14316;SDS011;7242;50.858;6.586;2023-04-05T06:45:37;9.50;;;5.70;;
14316;SDS011;7242;50.858;6.586;2023-04-05T06:48:38;11.73;;;5.70;;
14316;SDS011;7242;50.858;6.586;2023-04-05T06:51:39;8.07;;;5.40;;
14316;SDS011;7242;50.858;6.586;2023-04-05T06:54:40;9.00;;;5.27;;
14316;SDS011;7242;50.858;6.586;2023-04-05T06:57:41;8.03;;;5.20;;
14316;SDS011;7242;50.858;6.586;2023-04-05T07:00:42;9.97;;;5.60;;
14316;SDS011;7242;50.858;6.586;2023-04-05T07:03:43;14.40;;;5.70;;
14316;SDS011;7242;50.858;6.586;2023-04-05T07:06:44;8.57;;;5.30;;
14316;SDS011;7242;50.858;6.586;2023-04-05T07:09:45;7.83;;;5.90;;
14316;SDS011;7242;50.858;6.586;2023-04-05T07:12:46;11.00;;;6.10;;
14316;SDS011;7242;50.858;6.586;2023-04-05T07:15:47;8.30;;;5.97;;
14316;SDS011;7242;50.858;6.586;2023-04-05T07:18:47;7.67;;;5.90;;
14316;SDS011;7242;50.858;6.586;2023-04-05T07:21:49;13.37;;;6.33;;
14316;SDS011;7242;50.858;6.586;2023-04-05T07:24:49;10.90;;;5.93;;
14316;SDS011;7242;50.858;6.586;2023-04-05T07:27:52;7.00;;;5.47;;
14316;SDS011;7242;50.858;6.586;2023-04-05T07:30:53;9.93;;;5.60;;
14316;SDS011;7242;50.858;6.586;2023-04-05T07:33:53;11.00;;;5.50;;
14316;SDS011;7242;50.858;6.586;2023-04-05T07:36:54;13.27;;;5.80;;
14316;SDS011;7242;50.858;6.586;2023-04-05T07:39:55;11.20;;;6.23;;
14316;SDS011;7242;50.858;6.586;2023-04-05T07:42:57;9.03;;;5.80;;
14316;SDS011;7242;50.858;6.586;2023-04-05T07:46:01;11.50;;;5.67;;
14316;SDS011;7242;50.858;6.586;2023-04-05T07:49:02;10.07;;;5.50;;
14316;SDS011;7242;50.858;6.586;2023-04-05T07:52:04;12.10;;;5.80;;
14316;SDS011;7242;50.858;6.586;2023-04-05T07:55:06;9.10;;;6.00;;
14316;SDS011;7242;50.858;6.586;2023-04-05T07:58:08;13.83;;;6.50;;
14316;SDS011;7242;50.858;6.586;2023-04-05T08:01:09;11.07;;;6.47;;
14316;SDS011;7242;50.858;6.586;2023-04-05T08:04:10;11.80;;;6.70;;
14316;SDS011;7242;50.858;6.586;2023-04-05T08:07:11;11.33;;;6.43;;
14316;SDS011;7242;50.858;6.586;2023-04-05T08:10:12;10.80;;;6.27;;
14316;SDS011;7242;50.858;6.586;2023-04-05T08:13:12;12.40;;;6.30;;
14316;SDS011;7242;50.858;6.586;2023-04-05T08:16:14;12.70;;;6.90;;
14316;SDS011;7242;50.858;6.586;2023-04-05T08:19:14;14.03;;;6.93;;
14316;SDS011;7242;50.858;6.586;2023-04-05T08:22:15;12.27;;;6.93;;
14316;SDS011;7242;50.858;6.586;2023-04-05T08:25:18;11.03;;;6.97;;
14316;SDS011;7242;50.858;6.586;2023-04-05T08:28:19;9.37;;;7.20;;
14316;SDS011;7242;50.858;6.586;2023-04-05T08:31:19;10.77;;;6.70;;
14316;SDS011;7242;50.858;6.586;2023-04-05T08:34:20;12.47;;;7.27;;
14316;SDS011;7242;50.858;6.586;2023-04-05T08:37:21;9.60;;;6.83;;
14316;SDS011;7242;50.858;6.586;2023-04-05T08:40:26;12.57;;;7.47;;
14316;SDS011;7242;50.858;6.586;2023-04-05T08:43:54;10.33;;;6.83;;
14316;SDS011;7242;50.858;6.586;2023-04-05T08:46:59;10.20;;;7.10;;
14316;SDS011;7242;50.858;6.586;2023-04-05T08:50:00;12.87;;;7.33;;
14316;SDS011;7242;50.858;6.586;2023-04-05T08:53:02;10.43;;;6.97;;
14316;SDS011;7242;50.858;6.586;2023-04-05T08:56:03;11.27;;;7.07;;
14316;SDS011;7242;50.858;6.586;2023-04-05T08:59:10;10.23;;;7.33;;
14316;SDS011;7242;50.858;6.586;2023-04-05T09:02:18;11.67;;;7.40;;
14316;SDS011;7242;50.858;6.586;2023-04-05T09:05:22;10.03;;;7.07;;
14316;SDS011;7242;50.858;6.586;2023-04-05T09:08:23;9.90;;;7.10;;
14316;SDS011;7242;50.858;6.586;2023-04-05T09:11:24;8.63;;;7.03;;
14316;SDS011;7242;50.858;6.586;2023-04-05T09:14:25;10.60;;;6.90;;
14316;SDS011;7242;50.858;6.586;2023-04-05T09:17:27;9.20;;;6.93;;
14316;SDS011;7242;50.858;6.586;2023-04-05T09:20:28;12.70;;;7.63;;
14316;SDS011;7242;50.858;6.586;2023-04-05T09:23:29;12.03;;;7.20;;
14316;SDS011;7242;50.858;6.586;2023-04-05T09:26:30;10.13;;;6.70;;
14316;SDS011;7242;50.858;6.586;2023-04-05T09:29:34;9.77;;;7.00;;
14316;SDS011;7242;50.858;6.586;2023-04-05T09:32:44;12.87;;;7.47;;
14316;SDS011;7242;50.858;6.586;2023-04-05T09:35:48;9.23;;;6.60;;
14316;SDS011;7242;50.858;6.586;2023-04-05T09:38:50;9.07;;;6.50;;
14316;SDS011;7242;50.858;6.586;2023-04-05T09:42:03;8.97;;;6.70;;
14316;SDS011;7242;50.858;6.586;2023-04-05T09:45:06;10.77;;;7.07;;
14316;SDS011;7242;50.858;6.586;2023-04-05T09:48:17;12.47;;;7.80;;
14316;SDS011;7242;50.858;6.586;2023-04-05T09:51:19;9.10;;;7.40;;
14316;SDS011;7242;50.858;6.586;2023-04-05T09:54:19;10.17;;;7.37;;
14316;SDS011;7242;50.858;6.586;2023-04-05T09:57:24;10.57;;;7.67;;
14316;SDS011;7242;50.858;6.586;2023-04-05T10:00:29;12.13;;;7.13;;
14316;SDS011;7242;50.858;6.586;2023-04-05T10:03:31;8.47;;;7.17;;
14316;SDS011;7242;50.858;6.586;2023-04-05T10:06:48;10.13;;;7.07;;
14316;SDS011;7242;50.858;6.586;2023-04-05T10:09:49;9.70;;;6.87;;
14316;SDS011;7242;50.858;6.586;2023-04-05T10:12:50;7.90;;;6.10;;
14316;SDS011;7242;50.858;6.586;2023-04-05T10:15:52;13.70;;;7.03;;
14316;SDS011;7242;50.858;6.586;2023-04-05T10:18:56;8.97;;;6.53;;
14316;SDS011;7242;50.858;6.586;2023-04-05T10:21:58;8.80;;;6.83;;
14316;SDS011;7242;50.858;6.586;2023-04-05T10:25:04;8.33;;;6.13;;
14316;SDS011;7242;50.858;6.586;2023-04-05T10:28:30;8.23;;;6.43;;
14316;SDS011;7242;50.858;6.586;2023-04-05T10:35:19;7.37;;;5.77;;
14316;SDS011;7242;50.858;6.586;2023-04-05T10:38:28;8.50;;;6.10;;
14316;SDS011;7242;50.858;6.586;2023-04-05T10:41:33;7.83;;;5.87;;
14316;SDS011;7242;50.858;6.586;2023-04-05T10:44:40;7.03;;;5.63;;
14316;SDS011;7242;50.858;6.586;2023-04-05T10:47:49;9.43;;;6.00;;
14316;SDS011;7242;50.858;6.586;2023-04-05T10:50:56;8.87;;;6.03;;
14316;SDS011;7242;50.858;6.586;2023-04-05T10:53:58;6.87;;;5.60;;
14316;SDS011;7242;50.858;6.586;2023-04-05T10:57:00;6.87;;;5.63;;
14316;SDS011;7242;50.858;6.586;2023-04-05T11:00:04;8.00;;;6.40;;
14316;SDS011;7242;50.858;6.586;2023-04-05T11:03:05;8.30;;;6.00;;
14316;SDS011;7242;50.858;6.586;2023-04-05T11:06:40;6.73;;;6.03;;
14316;SDS011;7242;50.858;6.586;2023-04-05T11:09:34;9.27;;;6.07;;
14316;SDS011;7242;50.858;6.586;2023-04-05T11:15:45;7.53;;;5.83;;
14316;SDS011;7242;50.858;6.586;2023-04-05T11:19:09;9.43;;;5.87;;
14316;SDS011;7242;50.858;6.586;2023-04-05T11:22:10;8.70;;;5.80;;
14316;SDS011;7242;50.858;6.586;2023-04-05T11:25:23;6.33;;;5.63;;
14316;SDS011;7242;50.858;6.586;2023-04-05T11:31:25;10.27;;;6.20;;
14316;SDS011;7242;50.858;6.586;2023-04-05T11:34:26;6.70;;;5.17;;
14316;SDS011;7242;50.858;6.586;2023-04-05T11:41:14;7.87;;;5.77;;
14316;SDS011;7242;50.858;6.586;2023-04-05T11:44:16;7.47;;;5.17;;
14316;SDS011;7242;50.858;6.586;2023-04-05T11:47:18;6.80;;;5.40;;
14316;SDS011;7242;50.858;6.586;2023-04-05T11:50:22;9.13;;;6.30;;
14316;SDS011;7242;50.858;6.586;2023-04-05T11:53:23;8.80;;;6.13;;
14316;SDS011;7242;50.858;6.586;2023-04-05T11:56:24;6.87;;;5.90;;
14316;SDS011;7242;50.858;6.586;2023-04-05T11:59:28;8.57;;;6.20;;
14316;SDS011;7242;50.858;6.586;2023-04-05T12:02:33;8.70;;;6.60;;
14316;SDS011;7242;50.858;6.586;2023-04-05T12:05:52;7.80;;;6.33;;
14316;SDS011;7242;50.858;6.586;2023-04-05T12:08:54;8.80;;;6.73;;
14316;SDS011;7242;50.858;6.586;2023-04-05T12:11:55;9.17;;;6.60;;
14316;SDS011;7242;50.858;6.586;2023-04-05T12:14:59;8.07;;;6.60;;
14316;SDS011;7242;50.858;6.586;2023-04-05T12:18:00;7.57;;;6.60;;
14316;SDS011;7242;50.858;6.586;2023-04-05T12:21:02;9.53;;;6.30;;
14316;SDS011;7242;50.858;6.586;2023-04-05T12:24:12;8.23;;;5.83;;
14316;SDS011;7242;50.858;6.586;2023-04-05T12:27:13;8.77;;;7.03;;
14316;SDS011;7242;50.858;6.586;2023-04-05T12:30:18;8.10;;;6.87;;
14316;SDS011;7242;50.858;6.586;2023-04-05T12:33:27;7.67;;;6.40;;
14316;SDS011;7242;50.858;6.586;2023-04-05T12:36:29;9.30;;;6.33;;
14316;SDS011;7242;50.858;6.586;2023-04-05T12:39:31;9.77;;;6.27;;
14316;SDS011;7242;50.858;6.586;2023-04-05T12:42:33;7.87;;;6.93;;
14316;SDS011;7242;50.858;6.586;2023-04-05T12:45:37;7.83;;;7.03;;
14316;SDS011;7242;50.858;6.586;2023-04-05T12:48:41;10.17;;;7.00;;
14316;SDS011;7242;50.858;6.586;2023-04-05T12:51:43;8.83;;;6.83;;
14316;SDS011;7242;50.858;6.586;2023-04-05T12:54:52;7.83;;;6.50;;
14316;SDS011;7242;50.858;6.586;2023-04-05T12:57:54;9.10;;;6.60;;
14316;SDS011;7242;50.858;6.586;2023-04-05T13:00:59;9.20;;;6.80;;
14316;SDS011;7242;50.858;6.586;2023-04-05T13:04:00;14.57;;;6.93;;
14316;SDS011;7242;50.858;6.586;2023-04-05T13:07:01;10.67;;;6.50;;
14316;SDS011;7242;50.858;6.586;2023-04-05T13:10:02;7.60;;;6.80;;
14316;SDS011;7242;50.858;6.586;2023-04-05T13:13:03;8.63;;;6.80;;
14316;SDS011;7242;50.858;6.586;2023-04-05T13:16:04;8.40;;;6.67;;
14316;SDS011;7242;50.858;6.586;2023-04-05T13:19:05;8.33;;;7.20;;
14316;SDS011;7242;50.858;6.586;2023-04-05T13:22:06;8.57;;;6.07;;
14316;SDS011;7242;50.858;6.586;2023-04-05T13:25:07;9.93;;;6.33;;
14316;SDS011;7242;50.858;6.586;2023-04-05T13:28:08;6.87;;;6.17;;
14316;SDS011;7242;50.858;6.586;2023-04-05T13:31:09;7.53;;;6.17;;
14316;SDS011;7242;50.858;6.586;2023-04-05T13:34:10;7.97;;;6.30;;
14316;SDS011;7242;50.858;6.586;2023-04-05T13:37:11;8.03;;;6.10;;
14316;SDS011;7242;50.858;6.586;2023-04-05T13:40:11;7.27;;;6.47;;
14316;SDS011;7242;50.858;6.586;2023-04-05T13:43:12;7.23;;;6.07;;
14316;SDS011;7242;50.858;6.586;2023-04-05T13:46:13;7.13;;;6.20;;
14316;SDS011;7242;50.858;6.586;2023-04-05T13:49:14;8.20;;;6.33;;
14316;SDS011;7242;50.858;6.586;2023-04-05T13:52:15;8.60;;;6.33;;
14316;SDS011;7242;50.858;6.586;2023-04-05T13:55:17;8.53;;;6.30;;
14316;SDS011;7242;50.858;6.586;2023-04-05T13:58:17;13.83;;;6.67;;
14316;SDS011;7242;50.858;6.586;2023-04-05T14:01:18;10.90;;;6.70;;
14316;SDS011;7242;50.858;6.586;2023-04-05T14:04:20;10.13;;;6.40;;
14316;SDS011;7242;50.858;6.586;2023-04-05T14:07:21;8.13;;;6.20;;
14316;SDS011;7242;50.858;6.586;2023-04-05T14:10:22;8.00;;;6.17;;
14316;SDS011;7242;50.858;6.586;2023-04-05T14:13:23;7.30;;;6.50;;
14316;SDS011;7242;50.858;6.586;2023-04-05T14:16:24;9.33;;;6.50;;
14316;SDS011;7242;50.858;6.586;2023-04-05T14:19:25;8.50;;;6.80;;
14316;SDS011;7242;50.858;6.586;2023-04-05T14:22:26;8.90;;;6.60;;
14316;SDS011;7242;50.858;6.586;2023-04-05T14:25:27;8.80;;;6.90;;
14316;SDS011;7242;50.858;6.586;2023-04-05T14:28:28;13.23;;;6.73;;
14316;SDS011;7242;50.858;6.586;2023-04-05T14:31:29;16.60;;;6.90;;
14316;SDS011;7242;50.858;6.586;2023-04-05T14:34:30;8.43;;;6.30;;
14316;SDS011;7242;50.858;6.586;2023-04-05T14:37:32;8.47;;;6.50;;
14316;SDS011;7242;50.858;6.586;2023-04-05T14:40:33;13.37;;;6.47;;
14316;SDS011;7242;50.858;6.586;2023-04-05T14:43:35;7.30;;;6.03;;
14316;SDS011;7242;50.858;6.586;2023-04-05T14:46:36;9.40;;;6.33;;
14316;SDS011;7242;50.858;6.586;2023-04-05T14:49:37;8.50;;;6.07;;
14316;SDS011;7242;50.858;6.586;2023-04-05T14:52:38;7.90;;;5.87;;
14316;SDS011;7242;50.858;6.586;2023-04-05T14:55:39;8.30;;;6.27;;
14316;SDS011;7242;50.858;6.586;2023-04-05T14:58:40;10.30;;;6.40;;
14316;SDS011;7242;50.858;6.586;2023-04-05T15:01:41;6.97;;;5.43;;
14316;SDS011;7242;50.858;6.586;2023-04-05T15:04:44;8.27;;;6.03;;
14316;SDS011;7242;50.858;6.586;2023-04-05T15:07:45;9.00;;;6.60;;
14316;SDS011;7242;50.858;6.586;2023-04-05T15:10:46;10.77;;;5.83;;
14316;SDS011;7242;50.858;6.586;2023-04-05T15:13:47;8.50;;;6.10;;
14316;SDS011;7242;50.858;6.586;2023-04-05T15:16:48;7.63;;;6.07;;
14316;SDS011;7242;50.858;6.586;2023-04-05T15:19:49;7.70;;;6.30;;
14316;SDS011;7242;50.858;6.586;2023-04-05T15:22:50;8.50;;;6.47;;
14316;SDS011;7242;50.858;6.586;2023-04-05T15:25:51;8.53;;;7.17;;
14316;SDS011;7242;50.858;6.586;2023-04-05T15:28:52;8.33;;;6.77;;
14316;SDS011;7242;50.858;6.586;2023-04-05T15:31:53;7.67;;;6.13;;
14316;SDS011;7242;50.858;6.586;2023-04-05T15:34:54;9.60;;;6.17;;
14316;SDS011;7242;50.858;6.586;2023-04-05T15:37:55;8.17;;;6.40;;
14316;SDS011;7242;50.858;6.586;2023-04-05T15:40:57;8.27;;;6.13;;
14316;SDS011;7242;50.858;6.586;2023-04-05T15:43:58;7.27;;;5.80;;
14316;SDS011;7242;50.858;6.586;2023-04-05T15:46:59;9.00;;;6.10;;
14316;SDS011;7242;50.858;6.586;2023-04-05T15:50:01;7.27;;;5.50;;
14316;SDS011;7242;50.858;6.586;2023-04-05T15:53:02;6.53;;;5.00;;
14316;SDS011;7242;50.858;6.586;2023-04-05T15:56:03;7.80;;;5.17;;
14316;SDS011;7242;50.858;6.586;2023-04-05T15:59:05;9.10;;;5.87;;
14316;SDS011;7242;50.858;6.586;2023-04-05T16:02:06;8.90;;;5.83;;
14316;SDS011;7242;50.858;6.586;2023-04-05T16:05:08;8.70;;;6.17;;
14316;SDS011;7242;50.858;6.586;2023-04-05T16:08:09;8.30;;;6.00;;
14316;SDS011;7242;50.858;6.586;2023-04-05T16:11:10;9.53;;;6.10;;
14316;SDS011;7242;50.858;6.586;2023-04-05T16:14:11;7.60;;;5.17;;
14316;SDS011;7242;50.858;6.586;2023-04-05T16:17:13;6.47;;;5.10;;
14316;SDS011;7242;50.858;6.586;2023-04-05T16:20:13;7.50;;;5.60;;
14316;SDS011;7242;50.858;6.586;2023-04-05T16:23:15;7.53;;;4.70;;
14316;SDS011;7242;50.858;6.586;2023-04-05T16:26:15;8.40;;;5.20;;
14316;SDS011;7242;50.858;6.586;2023-04-05T16:29:16;7.50;;;4.70;;
14316;SDS011;7242;50.858;6.586;2023-04-05T16:32:17;6.70;;;4.50;;
14316;SDS011;7242;50.858;6.586;2023-04-05T16:35:19;5.73;;;4.37;;
14316;SDS011;7242;50.858;6.586;2023-04-05T16:38:20;7.50;;;4.47;;
14316;SDS011;7242;50.858;6.586;2023-04-05T16:41:21;6.23;;;5.00;;
14316;SDS011;7242;50.858;6.586;2023-04-05T16:44:22;7.03;;;5.27;;
14316;SDS011;7242;50.858;6.586;2023-04-05T16:47:23;8.90;;;5.57;;
14316;SDS011;7242;50.858;6.586;2023-04-05T16:50:24;6.37;;;5.20;;
14316;SDS011;7242;50.858;6.586;2023-04-05T16:53:25;7.90;;;5.50;;
14316;SDS011;7242;50.858;6.586;2023-04-05T16:56:26;7.73;;;5.93;;
14316;SDS011;7242;50.858;6.586;2023-04-05T16:59:27;9.90;;;6.00;;
14316;SDS011;7242;50.858;6.586;2023-04-05T17:02:27;7.70;;;5.70;;
14316;SDS011;7242;50.858;6.586;2023-04-05T17:05:28;6.67;;;5.17;;
14316;SDS011;7242;50.858;6.586;2023-04-05T17:08:30;7.50;;;5.23;;
14316;SDS011;7242;50.858;6.586;2023-04-05T17:11:31;7.57;;;5.40;;
14316;SDS011;7242;50.858;6.586;2023-04-05T17:14:31;7.67;;;5.20;;
14316;SDS011;7242;50.858;6.586;2023-04-05T17:17:32;9.50;;;6.07;;
14316;SDS011;7242;50.858;6.586;2023-04-05T17:20:33;7.37;;;5.93;;
14316;SDS011;7242;50.858;6.586;2023-04-05T17:23:34;7.37;;;5.37;;
14316;SDS011;7242;50.858;6.586;2023-04-05T17:26:35;10.37;;;6.17;;
14316;SDS011;7242;50.858;6.586;2023-04-05T17:29:36;7.40;;;5.93;;
14316;SDS011;7242;50.858;6.586;2023-04-05T17:32:37;6.63;;;5.13;;
14316;SDS011;7242;50.858;6.586;2023-04-05T17:35:38;7.03;;;5.73;;
14316;SDS011;7242;50.858;6.586;2023-04-05T17:38:39;8.10;;;5.60;;
14316;SDS011;7242;50.858;6.586;2023-04-05T17:41:40;8.90;;;6.60;;
14316;SDS011;7242;50.858;6.586;2023-04-05T17:44:42;8.53;;;6.57;;
14316;SDS011;7242;50.858;6.586;2023-04-05T17:47:44;7.90;;;6.73;;
14316;SDS011;7242;50.858;6.586;2023-04-05T17:50:45;8.43;;;6.60;;
14316;SDS011;7242;50.858;6.586;2023-04-05T17:53:46;7.10;;;6.10;;
14316;SDS011;7242;50.858;6.586;2023-04-05T17:56:47;8.50;;;6.80;;
14316;SDS011;7242;50.858;6.586;2023-04-05T17:59:48;7.83;;;6.83;;
14316;SDS011;7242;50.858;6.586;2023-04-05T18:02:48;9.37;;;7.10;;
14316;SDS011;7242;50.858;6.586;2023-04-05T18:05:50;8.27;;;6.60;;
14316;SDS011;7242;50.858;6.586;2023-04-05T18:08:55;10.87;;;7.30;;
14316;SDS011;7242;50.858;6.586;2023-04-05T18:11:56;11.13;;;7.43;;
14316;SDS011;7242;50.858;6.586;2023-04-05T18:14:57;9.17;;;7.67;;
14316;SDS011;7242;50.858;6.586;2023-04-05T18:17:58;10.43;;;7.60;;
14316;SDS011;7242;50.858;6.586;2023-04-05T18:20:58;9.07;;;7.20;;
14316;SDS011;7242;50.858;6.586;2023-04-05T18:24:00;9.07;;;7.03;;
14316;SDS011;7242;50.858;6.586;2023-04-05T18:27:01;11.10;;;8.13;;
14316;SDS011;7242;50.858;6.586;2023-04-05T18:30:02;9.70;;;8.37;;
14316;SDS011;7242;50.858;6.586;2023-04-05T18:33:03;11.33;;;8.23;;
14316;SDS011;7242;50.858;6.586;2023-04-05T18:36:04;13.20;;;8.03;;
14316;SDS011;7242;50.858;6.586;2023-04-05T18:39:05;11.00;;;7.87;;
14316;SDS011;7242;50.858;6.586;2023-04-05T18:42:07;12.87;;;9.67;;
14316;SDS011;7242;50.858;6.586;2023-04-05T18:45:08;13.33;;;11.00;;
14316;SDS011;7242;50.858;6.586;2023-04-05T18:48:09;15.27;;;11.30;;
14316;SDS011;7242;50.858;6.586;2023-04-05T18:51:10;15.73;;;11.10;;
14316;SDS011;7242;50.858;6.586;2023-04-05T18:54:11;13.70;;;9.40;;